createdAt,value
2023-03-20T00:02:28.126Z,22.03
2023-03-20T00:04:57.209Z,24.23
2023-03-20T00:07:26.256Z,23.93
2023-03-20T00:09:55.181Z,25.07
2023-03-20T00:12:27.260Z,25.10
2023-03-20T00:14:56.082Z,24.93
2023-03-20T00:17:25.181Z,26.87
2023-03-20T00:19:54.210Z,26.33
2023-03-20T00:22:23.065Z,25.73
2023-03-20T00:24:51.643Z,26.97
2023-03-20T00:27:20.231Z,27.10
2023-03-20T00:29:50.306Z,26.83
2023-03-20T00:32:19.099Z,26.93
2023-03-20T00:34:48.898Z,27.60
2023-03-20T00:37:17.445Z,28.17
2023-03-20T00:39:46.004Z,28.80
2023-03-20T00:42:23.441Z,28.47
2023-03-20T00:44:55.965Z,29.60
2023-03-20T00:47:25.821Z,26.77
2023-03-20T00:49:56.046Z,27.53
2023-03-20T00:52:25.314Z,28.73
2023-03-20T00:54:53.902Z,28.93
2023-03-20T00:57:27.306Z,27.23
2023-03-20T01:00:01.533Z,27.07
2023-03-20T01:02:31.460Z,26.80
2023-03-20T01:05:00.859Z,26.23
2023-03-20T01:07:29.417Z,27.00
2023-03-20T01:09:57.947Z,26.83
2023-03-20T01:12:27.492Z,25.93
2023-03-20T01:15:00.215Z,26.73
2023-03-20T01:17:30.885Z,26.23
2023-03-20T01:19:59.422Z,26.53
2023-03-20T01:22:27.938Z,25.13
2023-03-20T01:24:56.418Z,26.70
2023-03-20T01:27:24.993Z,25.97
2023-03-20T01:29:53.923Z,25.17
2023-03-20T01:32:23.800Z,26.50
2023-03-20T01:34:53.291Z,24.87
2023-03-20T01:37:26.844Z,25.50
2023-03-20T01:39:57.369Z,25.60
2023-03-20T01:42:26.780Z,25.93
2023-03-20T01:44:55.882Z,25.03
2023-03-20T01:47:27.940Z,24.67
2023-03-20T01:50:23.067Z,23.97
2023-03-20T01:52:55.530Z,22.97
2023-03-20T01:55:25.219Z,22.50
2023-03-20T01:57:56.466Z,22.00
2023-03-20T02:00:25.848Z,20.57
2023-03-20T02:02:56.259Z,20.73
2023-03-20T02:05:25.643Z,19.70
2023-03-20T02:08:03.979Z,18.17
2023-03-20T02:10:32.691Z,18.07
2023-03-20T02:13:03.275Z,17.70
2023-03-20T02:15:32.512Z,18.40
2023-03-20T02:18:02.550Z,16.87
2023-03-20T02:20:46.434Z,17.50
2023-03-20T02:23:48.580Z,16.07
2023-03-20T02:26:48.264Z,16.30
2023-03-20T02:29:46.775Z,16.30
2023-03-20T02:32:57.280Z,15.93
2023-03-20T02:35:57.064Z,16.03
2023-03-20T02:38:40.662Z,14.73
2023-03-20T02:41:18.952Z,16.27
2023-03-20T02:43:54.723Z,15.67
2023-03-20T02:46:32.400Z,15.87
2023-03-20T02:49:07.123Z,15.87
2023-03-20T02:51:41.731Z,15.57
2023-03-20T02:54:21.329Z,16.00
2023-03-20T02:56:57.921Z,15.93
2023-03-20T02:59:33.785Z,15.63
2023-03-20T03:02:08.759Z,15.90
2023-03-20T03:04:40.665Z,14.67
2023-03-20T03:07:12.158Z,15.33
2023-03-20T03:09:47.061Z,16.03
2023-03-20T03:12:19.531Z,14.77
2023-03-20T03:14:50.880Z,14.63
2023-03-20T03:17:23.555Z,14.63
2023-03-20T03:19:56.550Z,14.87
2023-03-20T03:22:25.820Z,14.13
2023-03-20T03:24:56.725Z,14.73
2023-03-20T03:27:28.456Z,14.50
2023-03-20T03:29:59.933Z,14.70
2023-03-20T03:32:33.122Z,14.93
2023-03-20T03:35:03.030Z,13.87
2023-03-20T03:37:41.934Z,15.33
2023-03-20T03:40:21.096Z,14.90
2023-03-20T03:42:57.282Z,14.67
2023-03-20T03:45:32.956Z,14.67
2023-03-20T03:48:07.835Z,14.50
2023-03-20T03:50:46.559Z,13.83
2023-03-20T03:53:16.846Z,15.13
2023-03-20T03:55:51.584Z,14.50
2023-03-20T03:58:24.726Z,14.07
2023-03-20T04:00:56.202Z,13.83
2023-03-20T04:03:30.028Z,13.00
2023-03-20T04:06:00.121Z,14.13
2023-03-20T04:08:28.906Z,13.37
2023-03-20T04:10:59.337Z,14.30
2023-03-20T04:13:28.035Z,14.07
2023-03-20T04:15:56.596Z,13.13
2023-03-20T04:18:26.034Z,13.27
2023-03-20T04:20:54.862Z,14.13
2023-03-20T04:23:23.392Z,14.07
2023-03-20T04:25:51.916Z,12.07
2023-03-20T04:28:21.890Z,13.50
2023-03-20T04:30:54.753Z,12.50
2023-03-20T04:33:23.408Z,12.03
2023-03-20T04:35:52.660Z,12.93
2023-03-20T04:38:23.276Z,13.37
2023-03-20T04:40:52.014Z,12.50
2023-03-20T04:43:21.925Z,12.40
2023-03-20T04:45:50.626Z,12.13
2023-03-20T04:48:19.159Z,11.93
2023-03-20T04:50:48.582Z,12.53
2023-03-20T04:53:17.420Z,12.37
2023-03-20T04:55:46.339Z,11.43
2023-03-20T04:58:16.908Z,11.93
2023-03-20T05:00:47.111Z,12.40
2023-03-20T05:03:15.613Z,12.60
2023-03-20T05:05:44.172Z,13.33
2023-03-20T05:08:13.237Z,12.73
2023-03-20T05:10:41.883Z,12.20
2023-03-20T05:13:10.657Z,12.17
2023-03-20T05:15:39.353Z,11.73
2023-03-20T05:18:09.855Z,11.83
2023-03-20T05:20:38.252Z,12.03
2023-03-20T05:23:07.616Z,12.50
2023-03-20T05:25:36.757Z,11.30
2023-03-20T05:28:05.699Z,10.83
2023-03-20T05:30:34.395Z,11.13
2023-03-20T05:33:02.954Z,10.73
2023-03-20T05:35:33.039Z,10.30
2023-03-20T05:38:01.645Z,11.53
2023-03-20T05:40:30.224Z,10.87
2023-03-20T05:42:59.354Z,10.93
2023-03-20T05:45:27.859Z,11.23
2023-03-20T05:47:56.410Z,11.13
2023-03-20T05:50:25.582Z,11.70
2023-03-20T05:52:55.996Z,11.50
2023-03-20T05:55:24.657Z,11.00
2023-03-20T05:57:53.157Z,11.83
2023-03-20T06:00:22.118Z,11.90
2023-03-20T06:02:50.967Z,11.80
2023-03-20T06:05:19.540Z,12.87
2023-03-20T06:07:48.097Z,13.77
2023-03-20T06:10:20.142Z,14.47
2023-03-20T06:12:49.017Z,14.10
2023-03-20T06:15:17.660Z,14.73
2023-03-20T06:17:46.157Z,15.63
2023-03-20T06:20:15.252Z,15.60
2023-03-20T06:22:44.080Z,16.07
2023-03-20T06:25:12.709Z,16.77
2023-03-20T06:27:42.693Z,16.33
2023-03-20T06:30:12.663Z,16.30
2023-03-20T06:32:41.454Z,15.63
2023-03-20T06:35:11.083Z,16.30
2023-03-20T06:37:39.707Z,15.87
2023-03-20T06:40:10.111Z,17.47
2023-03-20T06:42:38.870Z,17.43
2023-03-20T06:45:11.310Z,16.60
2023-03-20T06:47:39.892Z,17.97
2023-03-20T06:50:10.441Z,18.10
2023-03-20T06:52:40.010Z,18.37
2023-03-20T06:55:09.184Z,17.93
2023-03-20T06:57:37.702Z,17.43
2023-03-20T07:00:08.123Z,17.83
2023-03-20T07:02:38.212Z,16.77
2023-03-20T07:05:08.376Z,16.53
2023-03-20T07:07:37.219Z,16.23
2023-03-20T07:10:07.583Z,15.43
2023-03-20T07:12:36.079Z,14.60
2023-03-20T07:15:05.929Z,13.10
2023-03-20T07:17:35.099Z,11.93
2023-03-20T07:20:05.784Z,11.77
2023-03-20T07:22:34.362Z,10.23
2023-03-20T07:25:03.715Z,10.50
2023-03-20T07:27:32.297Z,9.70
2023-03-20T07:30:00.863Z,9.57
2023-03-20T07:32:29.886Z,8.70
2023-03-20T07:34:59.360Z,8.20
2023-03-20T07:37:29.336Z,6.67
2023-03-20T07:39:57.907Z,6.83
2023-03-20T07:42:27.139Z,7.50
2023-03-20T07:44:56.065Z,6.30
2023-03-20T07:47:24.737Z,6.83
2023-03-20T07:49:54.315Z,6.40
2023-03-20T07:52:23.939Z,6.67
2023-03-20T07:54:53.984Z,5.90
2023-03-20T07:57:22.528Z,6.33
2023-03-20T07:59:51.134Z,5.87
2023-03-20T08:02:20.576Z,5.87
2023-03-20T08:04:49.188Z,5.97
2023-03-20T08:07:18.193Z,5.77
2023-03-20T08:09:47.453Z,5.63
2023-03-20T08:12:18.178Z,6.10
2023-03-20T08:14:46.757Z,6.30
2023-03-20T08:17:18.729Z,7.03
2023-03-20T08:19:49.981Z,6.70
2023-03-20T08:22:18.807Z,6.80
2023-03-20T08:24:47.399Z,7.03
2023-03-20T08:27:17.870Z,7.27
2023-03-20T08:29:46.458Z,7.27
2023-03-20T08:32:15.116Z,6.70
2023-03-20T08:34:43.932Z,7.27
2023-03-20T08:37:14.241Z,6.90
2023-03-20T08:39:42.928Z,6.67
2023-03-20T08:42:11.649Z,6.30
2023-03-20T08:44:41.770Z,7.00
2023-03-20T08:47:12.305Z,6.27
2023-03-20T08:49:40.861Z,5.87
2023-03-20T08:52:10.091Z,6.17
2023-03-20T08:54:38.731Z,5.73
2023-03-20T08:57:07.632Z,5.23
2023-03-20T08:59:36.291Z,5.53
2023-03-20T09:02:07.233Z,5.73
2023-03-20T09:04:35.935Z,4.60
2023-03-20T09:07:05.147Z,5.00
2023-03-20T09:09:34.702Z,4.80
2023-03-20T09:12:03.451Z,4.40
2023-03-20T09:14:32.098Z,4.00
2023-03-20T09:17:01.556Z,4.47
2023-03-20T09:19:31.933Z,4.10
2023-03-20T09:22:01.719Z,4.27
2023-03-20T09:24:31.553Z,4.03
2023-03-20T09:27:03.705Z,3.80
2023-03-20T09:29:32.537Z,3.53
2023-03-20T09:32:05.313Z,3.57
2023-03-20T09:34:35.388Z,3.67
2023-03-20T09:37:04.335Z,3.80
2023-03-20T09:39:33.464Z,4.00
2023-03-20T09:42:09.246Z,4.17
2023-03-20T09:44:50.274Z,2.90
2023-03-20T09:47:24.319Z,3.13
2023-03-20T09:50:03.724Z,3.03
2023-03-20T09:52:34.569Z,2.63
2023-03-20T09:55:08.411Z,2.80
2023-03-20T09:57:41.370Z,2.60
2023-03-20T10:00:19.635Z,2.90
2023-03-20T10:02:54.272Z,2.77
2023-03-20T10:05:29.253Z,2.20
2023-03-20T10:07:59.972Z,2.77
2023-03-20T10:10:38.077Z,2.77
2023-03-20T10:13:19.338Z,2.33
2023-03-20T10:15:54.197Z,2.60
2023-03-20T10:18:27.945Z,2.53
2023-03-20T10:21:01.287Z,2.50
2023-03-20T10:23:37.490Z,2.80
2023-03-20T10:26:11.940Z,2.90
2023-03-20T10:28:47.759Z,2.73
2023-03-20T10:31:31.103Z,2.70
2023-03-20T10:34:23.923Z,3.23
2023-03-20T10:37:10.022Z,3.13
2023-03-20T10:39:53.558Z,3.10
2023-03-20T10:42:25.070Z,3.50
2023-03-20T10:44:59.804Z,4.03
2023-03-20T10:47:31.797Z,3.33
2023-03-20T10:50:04.816Z,3.63
2023-03-20T10:52:39.687Z,2.90
2023-03-20T10:55:13.349Z,3.17
2023-03-20T10:57:48.749Z,2.70
2023-03-20T11:00:23.495Z,2.70
2023-03-20T11:02:52.530Z,2.77
2023-03-20T11:05:29.875Z,2.90
2023-03-20T11:08:07.117Z,2.80
2023-03-20T11:10:37.479Z,2.70
2023-03-20T11:13:19.559Z,2.80
2023-03-20T11:15:48.400Z,3.00
2023-03-20T11:18:17.580Z,2.90
2023-03-20T11:20:51.149Z,3.17
2023-03-20T11:23:25.677Z,2.73
2023-03-20T11:26:00.013Z,2.90
2023-03-20T11:28:33.865Z,2.80
2023-03-20T11:31:06.873Z,2.80
2023-03-20T11:33:39.763Z,3.50
2023-03-20T11:36:27.639Z,3.20
2023-03-20T11:39:06.146Z,3.10
2023-03-20T11:41:35.507Z,3.23
2023-03-20T11:44:04.169Z,3.07
2023-03-20T11:46:33.093Z,3.20
2023-03-20T11:49:11.633Z,3.03
2023-03-20T11:51:41.194Z,3.20
2023-03-20T11:54:17.948Z,2.80
2023-03-20T11:56:55.067Z,2.80
2023-03-20T11:59:27.502Z,3.00
2023-03-20T12:02:01.212Z,3.43
2023-03-20T12:04:34.400Z,3.60
2023-03-20T12:07:11.348Z,2.97
2023-03-20T12:09:46.303Z,2.80
2023-03-20T12:12:26.425Z,2.97
2023-03-20T12:14:59.216Z,3.27
2023-03-20T12:17:55.728Z,2.67
2023-03-20T12:20:38.208Z,3.00
2023-03-20T12:23:16.527Z,2.83
2023-03-20T12:25:55.147Z,2.67
2023-03-20T12:28:29.679Z,2.50
2023-03-20T12:31:09.735Z,3.83
2023-03-20T12:33:51.814Z,2.37
2023-03-20T12:36:28.647Z,2.43
2023-03-20T12:38:58.208Z,2.70
2023-03-20T12:41:36.456Z,3.03
2023-03-20T12:44:27.715Z,3.30
2023-03-20T12:47:07.318Z,3.33
2023-03-20T12:49:47.304Z,4.03
2023-03-20T12:52:28.368Z,4.50
2023-03-20T12:55:26.160Z,5.20
2023-03-20T12:58:09.712Z,4.53
2023-03-20T13:00:46.067Z,5.07
2023-03-20T13:03:29.727Z,4.17
2023-03-20T13:06:06.096Z,3.90
2023-03-20T13:08:56.307Z,3.60
2023-03-20T13:11:37.215Z,3.17
2023-03-20T13:14:16.139Z,3.57
2023-03-20T13:16:53.860Z,3.70
2023-03-20T13:19:30.430Z,3.90
2023-03-20T13:22:06.146Z,3.97
2023-03-20T13:24:40.586Z,4.10
2023-03-20T13:27:28.516Z,4.37
2023-03-20T13:30:05.368Z,4.10
2023-03-20T13:32:47.553Z,5.63
2023-03-20T13:35:37.891Z,6.10
2023-03-20T13:38:14.644Z,6.33
2023-03-20T13:40:47.731Z,4.90
2023-03-20T13:43:26.516Z,4.30
2023-03-20T13:46:03.247Z,4.20
2023-03-20T13:48:36.246Z,3.20
2023-03-20T13:51:15.802Z,3.70
2023-03-20T13:53:56.835Z,4.40
2023-03-20T13:56:38.708Z,3.73
2023-03-20T13:59:24.766Z,3.93
2023-03-20T14:02:09.800Z,4.27
2023-03-20T14:04:39.402Z,3.50
2023-03-20T14:07:30.060Z,3.53
2023-03-20T14:09:58.970Z,3.80
2023-03-20T14:12:28.799Z,4.70
2023-03-20T14:15:01.099Z,5.30
2023-03-20T14:17:33.210Z,5.30
2023-03-20T14:20:14.597Z,5.60
2023-03-20T14:22:45.501Z,5.47
2023-03-20T14:25:21.057Z,6.07
2023-03-20T14:27:58.848Z,5.47
2023-03-20T14:30:46.340Z,4.83
2023-03-20T14:33:36.199Z,5.23
2023-03-20T14:36:29.852Z,5.33
2023-03-20T14:39:24.164Z,6.17
2023-03-20T14:42:23.772Z,5.73
2023-03-20T14:45:33.036Z,5.50
2023-03-20T14:48:09.377Z,5.13
2023-03-20T14:50:43.925Z,5.70
2023-03-20T14:53:18.871Z,4.67
2023-03-20T14:56:11.988Z,4.57
2023-03-20T14:58:50.929Z,4.47
2023-03-20T15:01:30.748Z,4.47
2023-03-20T15:04:03.719Z,4.40
2023-03-20T15:06:35.661Z,4.20
2023-03-20T15:09:13.287Z,4.47
2023-03-20T15:11:44.897Z,4.93
2023-03-20T15:14:21.436Z,4.00
2023-03-20T15:16:52.496Z,4.10
2023-03-20T15:19:21.936Z,4.17
2023-03-20T15:21:52.507Z,4.77
2023-03-20T15:24:23.712Z,5.10
2023-03-20T15:26:58.162Z,4.57
2023-03-20T15:29:28.368Z,4.33
2023-03-20T15:32:12.898Z,4.70
2023-03-20T15:34:44.341Z,4.57
2023-03-20T15:37:21.245Z,4.27
2023-03-20T15:39:52.449Z,4.67
2023-03-20T15:42:25.373Z,4.50
2023-03-20T15:44:56.344Z,4.80
2023-03-20T15:47:26.305Z,4.47
2023-03-20T15:49:57.105Z,5.13
2023-03-20T15:52:33.486Z,7.07
2023-03-20T15:55:07.388Z,5.67
2023-03-20T15:57:37.957Z,5.33
2023-03-20T16:00:16.454Z,6.10
2023-03-20T16:02:48.480Z,7.53
2023-03-20T16:05:19.932Z,6.67
2023-03-20T16:07:50.448Z,6.73
2023-03-20T16:10:22.174Z,6.17
2023-03-20T16:12:54.662Z,6.20
2023-03-20T16:15:28.207Z,6.03
2023-03-20T16:17:59.810Z,5.50
2023-03-20T16:20:34.402Z,5.07
2023-03-20T16:23:09.402Z,8.67
2023-03-20T16:25:40.622Z,6.90
2023-03-20T16:28:09.874Z,9.00
2023-03-20T16:30:39.486Z,6.67
2023-03-20T16:33:14.049Z,7.30
2023-03-20T16:35:46.766Z,7.80
2023-03-20T16:38:27.304Z,7.30
2023-03-20T16:40:58.610Z,7.20
2023-03-20T16:43:32.424Z,8.00
2023-03-20T16:46:08.703Z,8.07
2023-03-20T16:48:39.962Z,6.70
2023-03-20T16:51:18.401Z,6.10
2023-03-20T16:53:50.176Z,5.67
2023-03-20T16:56:23.812Z,5.93
2023-03-20T16:58:56.439Z,6.23
2023-03-20T17:01:28.357Z,6.37
2023-03-20T17:03:59.456Z,6.47
2023-03-20T17:06:39.119Z,6.23
2023-03-20T17:09:24.997Z,6.80
2023-03-20T17:12:03.791Z,6.07
2023-03-20T17:14:37.666Z,7.13
2023-03-20T17:17:13.318Z,7.13
2023-03-20T17:19:42.376Z,8.17
2023-03-20T17:22:18.251Z,8.33
2023-03-20T17:24:49.027Z,9.13
2023-03-20T17:27:20.037Z,7.97
2023-03-20T17:29:50.651Z,8.00
2023-03-20T17:32:20.937Z,7.20
2023-03-20T17:34:49.794Z,7.60
2023-03-20T17:37:24.647Z,7.07
2023-03-20T17:39:55.686Z,7.30
2023-03-20T17:42:31.872Z,6.93
2023-03-20T17:45:01.399Z,6.83
2023-03-20T17:47:30.956Z,6.83
2023-03-20T17:49:59.912Z,6.70
2023-03-20T17:52:30.607Z,8.30
2023-03-20T17:55:00.956Z,10.83
2023-03-20T17:57:34.961Z,10.83
2023-03-20T18:00:09.222Z,10.70
2023-03-20T18:02:38.200Z,10.13
2023-03-20T18:05:08.960Z,8.20
2023-03-20T18:07:37.873Z,7.00
2023-03-20T18:10:15.005Z,6.87
2023-03-20T18:12:44.330Z,6.20
2023-03-20T18:15:15.966Z,6.27
2023-03-20T18:17:47.790Z,5.93
2023-03-20T18:20:27.561Z,5.90
2023-03-20T18:22:56.746Z,5.73
2023-03-20T18:25:31.092Z,7.80
2023-03-20T18:28:02.069Z,7.23
2023-03-20T18:30:39.481Z,10.63
2023-03-20T18:33:12.726Z,6.20
2023-03-20T18:35:42.019Z,6.53
2023-03-20T18:38:14.652Z,6.03
2023-03-20T18:40:47.777Z,5.60
2023-03-20T18:43:16.606Z,6.63
2023-03-20T18:45:46.452Z,6.73
2023-03-20T18:48:16.641Z,5.40
2023-03-20T18:50:51.272Z,6.20
2023-03-20T18:53:23.091Z,5.80
2023-03-20T18:55:53.814Z,5.67
2023-03-20T18:58:26.205Z,5.67
2023-03-20T19:00:57.173Z,5.17
2023-03-20T19:03:30.584Z,6.50
2023-03-20T19:06:00.734Z,7.03
2023-03-20T19:08:34.324Z,6.63
2023-03-20T19:11:10.211Z,8.13
2023-03-20T19:13:39.604Z,7.63
2023-03-20T19:16:23.597Z,6.23
2023-03-20T19:18:56.767Z,5.80
2023-03-20T19:21:29.723Z,9.17
2023-03-20T19:24:08.196Z,6.97
2023-03-20T19:26:39.208Z,7.03
2023-03-20T19:29:11.188Z,6.13
2023-03-20T19:31:42.255Z,7.50
2023-03-20T19:34:44.359Z,6.30
2023-03-20T19:37:03.824Z,7.70
2023-03-20T19:39:33.066Z,7.10
2023-03-20T19:42:32.168Z,6.20
2023-03-20T19:44:59.391Z,6.57
2023-03-20T19:47:28.585Z,6.73
2023-03-20T19:50:05.796Z,9.50
2023-03-20T19:52:50.212Z,9.27
2023-03-20T19:55:25.059Z,6.97
2023-03-20T19:57:58.212Z,5.47
2023-03-20T20:03:23.140Z,6.07
2023-03-20T20:06:00.187Z,8.87
2023-03-20T20:08:45.153Z,8.50
2023-03-20T20:11:17.822Z,6.53
2023-03-20T20:14:08.059Z,7.13
2023-03-20T20:16:40.360Z,7.70
2023-03-20T20:19:09.498Z,11.47
2023-03-20T20:22:17.304Z,12.70
2023-03-20T20:24:28.622Z,6.63
2023-03-20T20:27:17.468Z,9.73
2023-03-20T20:29:51.136Z,6.53
2023-03-20T20:32:23.583Z,6.83
2023-03-20T20:40:34.456Z,6.93
2023-03-20T20:43:09.999Z,12.10
2023-03-20T20:45:41.300Z,7.03
2023-03-20T20:48:10.588Z,6.23
2023-03-20T20:50:41.043Z,8.80
2023-03-20T20:53:10.472Z,8.93
2023-03-20T20:55:39.969Z,7.93
2023-03-20T20:58:11.778Z,6.03
2023-03-20T21:00:51.247Z,6.10
2023-03-20T21:03:21.211Z,5.30
2023-03-20T21:05:51.931Z,5.23
2023-03-20T21:08:20.995Z,6.07
2023-03-20T21:10:51.458Z,5.47
2023-03-20T21:13:21.186Z,5.83
2023-03-20T21:15:59.505Z,5.40
2023-03-20T21:18:29.706Z,7.27
2023-03-20T21:21:06.869Z,4.80
2023-03-20T21:23:36.709Z,6.27
2023-03-20T21:26:06.256Z,4.90
2023-03-20T21:28:36.326Z,5.03
2023-03-20T21:31:23.933Z,5.60
2023-03-20T21:33:55.366Z,5.40
2023-03-20T21:36:26.193Z,5.30
2023-03-20T21:39:08.296Z,5.77
2023-03-20T21:41:39.200Z,5.97
2023-03-20T21:44:17.725Z,5.83
2023-03-20T21:47:58.137Z,5.87
2023-03-20T21:53:06.794Z,7.33
2023-03-20T21:56:29.334Z,6.27
2023-03-20T21:58:51.043Z,5.97
2023-03-20T22:01:39.716Z,5.70
2023-03-20T22:04:49.163Z,7.23
2023-03-20T22:10:10.912Z,5.93
2023-03-20T22:13:08.602Z,7.17
2023-03-20T22:15:46.197Z,6.83
2023-03-20T22:21:30.046Z,7.73
2023-03-20T22:27:21.852Z,7.37
2023-03-20T22:38:29.390Z,8.60
2023-03-20T22:41:27.476Z,8.87
2023-03-20T22:46:42.159Z,9.23
2023-03-20T22:49:03.197Z,8.97
2023-03-20T22:51:36.930Z,9.87
2023-03-20T22:54:12.300Z,9.13
2023-03-20T22:56:41.270Z,9.77
2023-03-20T22:59:10.186Z,9.53
2023-03-20T23:01:39.138Z,9.67
2023-03-20T23:04:08.040Z,10.17
2023-03-20T23:06:36.853Z,10.07
2023-03-20T23:09:15.081Z,10.73
2023-03-20T23:11:45.906Z,9.83
2023-03-20T23:14:21.069Z,10.30
2023-03-20T23:16:50.687Z,10.70
2023-03-20T23:19:19.742Z,10.27
2023-03-20T23:21:48.367Z,10.90
2023-03-20T23:24:17.124Z,10.67
2023-03-20T23:26:47.719Z,10.67
2023-03-20T23:29:16.799Z,10.70
2023-03-20T23:31:45.421Z,10.67
2023-03-20T23:34:15.195Z,10.70
2023-03-20T23:36:44.699Z,10.77
2023-03-20T23:39:16.006Z,11.80
2023-03-20T23:44:36.250Z,12.83
2023-03-20T23:47:19.431Z,13.57
2023-03-20T23:49:48.726Z,13.77
2023-03-20T23:52:17.379Z,13.70
2023-03-20T23:54:46.021Z,13.50
2023-03-20T23:57:15.245Z,12.97
2023-03-20T23:59:47.270Z,13.33
